< Typhoon 200215 2002 Season Typhoon 200217 >
Typhoon 200216 (SINLAKU)
General InformationTrack Information on Google MapsDetailed Wind InformationList of All Images || NewsDisaster Info.ResourceGoogle EarthGE AnimationAtom FeedGeoJSON
Detalied Best Track (Time Zone = UTC)
Year Month Day Hour Lat. Long. Pressure (hPa) Wind (kt) Class Image Chart
2002 8 27 12 16.4 154.7 1004 0 2 Image Chart
2002 8 27 18 16.8 154.6 1004 0 2 Image Chart
2002 8 28 00 16.1 153.8 1008 0 2 Image Chart
2002 8 28 06 16.0 155.0 1006 0 2 Image Chart
2002 8 28 12 16.5 155.4 1004 0 2 Image Chart
2002 8 28 18 17.0 155.4 1002 0 2 Image Chart
2002 8 29 00 17.8 155.3 1000 0 2 Image Chart
2002 8 29 06 18.3 155.1 996 35 3 Image Chart
2002 8 29 12 18.7 155.1 990 45 3 Image Chart
2002 8 29 18 19.3 154.9 990 45 3 Image Chart
2002 8 30 00 20.7 154.0 985 55 4 Image Chart
2002 8 30 06 21.5 153.5 980 55 4 Image Chart
2002 8 30 12 22.3 152.6 980 55 4 Image Chart
2002 8 30 18 23.0 151.6 975 60 4 Image Chart
2002 8 31 00 23.4 150.8 960 75 5 Image Chart
2002 8 31 06 23.7 149.7 950 80 5 Image Chart
2002 8 31 12 23.8 148.7 950 80 5 Image Chart
2002 8 31 18 23.9 147.9 950 80 5 Image Chart
2002 9 1 00 24.0 146.8 950 80 5 Image Chart
2002 9 1 06 24.1 145.7 950 80 5 Image Chart
2002 9 1 12 24.2 144.5 950 80 5 Image Chart
2002 9 1 18 24.3 143.1 950 80 5 Image Chart
2002 9 2 00 24.2 141.8 950 80 5 Image Chart
2002 9 2 06 24.4 140.4 955 75 5 Image Chart
2002 9 2 12 24.5 139.1 955 75 5 Image Chart
2002 9 2 18 24.5 137.7 955 75 5 Image Chart
2002 9 3 00 24.9 136.4 955 75 5 Image Chart
2002 9 3 06 25.4 134.9 955 75 5 Image Chart
2002 9 3 09 25.5 134.2 955 75 5 Image Chart
2002 9 3 12 25.5 133.3 955 75 5 Image Chart
2002 9 3 15 25.6 132.6 955 75 5 Image Chart
2002 9 3 18 25.7 132.1 955 75 5 Image Chart
2002 9 3 21 25.7 131.3 960 75 5 Image Chart
2002 9 4 00 25.9 130.7 960 75 5 Image Chart
2002 9 4 03 26.0 130.1 960 75 5 Image Chart
2002 9 4 06 26.1 129.5 960 75 5 Image Chart
2002 9 4 09 26.2 129.0 960 75 5 Image Chart
2002 9 4 12 26.2 128.5 955 80 5 Image Chart
2002 9 4 15 26.2 127.9 955 80 5 Image Chart
2002 9 4 18 26.3 127.3 955 80 5 Image Chart
2002 9 4 21 26.4 127.0 955 80 5 Image Chart
2002 9 4 23 26.4 126.8 955 80 5 Image Chart
2002 9 5 00 26.4 126.7 955 80 5 Image Chart
2002 9 5 03 26.5 126.4 955 80 5 Image Chart
2002 9 5 06 26.5 126.2 955 80 5 Image Chart
2002 9 5 09 26.5 126.1 955 80 5 Image Chart
2002 9 5 12 26.6 125.8 955 80 5 Image Chart
2002 9 5 15 26.5 125.5 955 80 5 Image Chart
2002 9 5 18 26.3 125.3 955 80 5 Image Chart
2002 9 5 21 26.3 125.3 955 80 5 Image Chart
2002 9 6 00 26.0 125.2 955 80 5 Image Chart
2002 9 6 03 26.0 124.9 955 80 5 Image Chart
2002 9 6 06 26.0 124.8 955 80 5 Image Chart
2002 9 6 09 26.1 124.7 955 80 5 Image Chart
2002 9 6 12 26.2 124.4 955 80 5 Image Chart
2002 9 6 15 26.3 124.2 955 80 5 Image Chart
2002 9 6 18 26.5 123.8 955 80 5 Image Chart
2002 9 6 21 26.7 123.4 955 80 5 Image Chart
2002 9 7 00 27.0 123.3 960 75 5 Image Chart
2002 9 7 06 27.3 121.5 965 70 5 Image Chart
2002 9 7 12 27.1 120.4 975 60 4 Image Chart
2002 9 7 18 27.4 119.1 990 45 3 Image Chart
2002 9 8 00 28.2 116.9 1002 0 2 Image Chart
2002 9 8 06 28.4 116.2 1004 0 2 Image Chart
2002 9 8 12 28.7 113.9 1006 0 2 Image Chart
2002 9 8 18 28.8 112.8 1008 0 2 Image Chart
2002 9 9 00 29.4 111.5 1008 0 2 Image Chart
Japan Meteorological Agency Best Track Data | Correction Date : 2006-01-18
< Typhoon 200215 2002 Season Typhoon 200217 >

Help